sensor_id;sensor_type;location;lat;lon;timestamp;temperature;humidity
22337;DHT22;14992;50.844;4.418;2022-08-11T00:02:27;24.30;85.70
22337;DHT22;14992;50.844;4.418;2022-08-11T00:05:12;24.30;85.80
22337;DHT22;14992;50.844;4.418;2022-08-11T00:08:09;24.20;86.30
22337;DHT22;14992;50.844;4.418;2022-08-11T00:10:53;24.20;86.70
22337;DHT22;14992;50.844;4.418;2022-08-11T00:13:50;24.20;86.90
22337;DHT22;14992;50.844;4.418;2022-08-11T00:16:33;24.20;87.00
22337;DHT22;14992;50.844;4.418;2022-08-11T00:19:31;24.10;87.10
22337;DHT22;14992;50.844;4.418;2022-08-11T00:22:35;24.10;87.40
22337;DHT22;14992;50.844;4.418;2022-08-11T00:25:25;24.10;87.40
22337;DHT22;14992;50.844;4.418;2022-08-11T00:28:22;24.00;88.10
22337;DHT22;14992;50.844;4.418;2022-08-11T00:31:27;24.10;87.90
22337;DHT22;14992;50.844;4.418;2022-08-11T00:34:10;23.90;88.60
22337;DHT22;14992;50.844;4.418;2022-08-11T00:37:09;23.80;88.80
22337;DHT22;14992;50.844;4.418;2022-08-11T00:39:54;23.80;88.70
22337;DHT22;14992;50.844;4.418;2022-08-11T00:43:00;23.70;89.20
22337;DHT22;14992;50.844;4.418;2022-08-11T00:46:10;23.80;89.30
22337;DHT22;14992;50.844;4.418;2022-08-11T00:49:15;23.70;90.00
22337;DHT22;14992;50.844;4.418;2022-08-11T00:52:07;23.70;90.00
22337;DHT22;14992;50.844;4.418;2022-08-11T00:55:24;23.70;90.00
22337;DHT22;14992;50.844;4.418;2022-08-11T01:02:11;23.70;90.20
22337;DHT22;14992;50.844;4.418;2022-08-11T01:05:33;23.50;90.60
22337;DHT22;14992;50.844;4.418;2022-08-11T01:09:09;23.50;90.50
22337;DHT22;14992;50.844;4.418;2022-08-11T01:12:20;23.60;90.60
22337;DHT22;14992;50.844;4.418;2022-08-11T01:15:34;23.60;90.50
22337;DHT22;14992;50.844;4.418;2022-08-11T01:46:51;23.30;91.50
22337;DHT22;14992;50.844;4.418;2022-08-11T01:49:56;23.10;92.30
22337;DHT22;14992;50.844;4.418;2022-08-11T01:53:02;23.10;92.40
22337;DHT22;14992;50.844;4.418;2022-08-11T01:56:01;23.00;92.70
22337;DHT22;14992;50.844;4.418;2022-08-11T01:59:08;23.00;92.60
22337;DHT22;14992;50.844;4.418;2022-08-11T02:02:22;23.10;92.80
22337;DHT22;14992;50.844;4.418;2022-08-11T02:05:43;23.10;92.60
22337;DHT22;14992;50.844;4.418;2022-08-11T02:08:56;23.10;93.00
22337;DHT22;14992;50.844;4.418;2022-08-11T02:11:44;23.00;93.10
22337;DHT22;14992;50.844;4.418;2022-08-11T02:14:52;23.00;93.20
22337;DHT22;14992;50.844;4.418;2022-08-11T02:17:56;23.00;93.30
22337;DHT22;14992;50.844;4.418;2022-08-11T02:20:51;23.00;93.40
22337;DHT22;14992;50.844;4.418;2022-08-11T02:23:56;23.00;93.50
22337;DHT22;14992;50.844;4.418;2022-08-11T02:26:46;23.00;93.60
22337;DHT22;14992;50.844;4.418;2022-08-11T02:29:46;22.90;93.70
22337;DHT22;14992;50.844;4.418;2022-08-11T02:32:57;22.90;93.90
22337;DHT22;14992;50.844;4.418;2022-08-11T02:36:02;22.80;94.20
22337;DHT22;14992;50.844;4.418;2022-08-11T02:39:05;22.80;94.50
22337;DHT22;14992;50.844;4.418;2022-08-11T02:41:52;22.70;94.90
22337;DHT22;14992;50.844;4.418;2022-08-11T02:45:46;22.60;95.20
22337;DHT22;14992;50.844;4.418;2022-08-11T02:48:38;22.60;95.60
22337;DHT22;14992;50.844;4.418;2022-08-11T02:51:56;22.50;96.00
22337;DHT22;14992;50.844;4.418;2022-08-11T02:54:48;22.50;96.30
22337;DHT22;14992;50.844;4.418;2022-08-11T02:57:52;22.60;96.40
22337;DHT22;14992;50.844;4.418;2022-08-11T03:00:52;22.40;96.70
22337;DHT22;14992;50.844;4.418;2022-08-11T03:03:54;22.30;97.50
22337;DHT22;14992;50.844;4.418;2022-08-11T03:06:44;22.20;97.90
22337;DHT22;14992;50.844;4.418;2022-08-11T03:09:48;22.20;98.50
22337;DHT22;14992;50.844;4.418;2022-08-11T03:12:44;22.20;98.80
22337;DHT22;14992;50.844;4.418;2022-08-11T03:16:07;22.20;99.00
22337;DHT22;14992;50.844;4.418;2022-08-11T03:19:13;22.10;99.30
22337;DHT22;14992;50.844;4.418;2022-08-11T03:22:18;22.10;99.90
22337;DHT22;14992;50.844;4.418;2022-08-11T03:25:02;22.00;99.90
22337;DHT22;14992;50.844;4.418;2022-08-11T03:28:03;21.80;99.90
22337;DHT22;14992;50.844;4.418;2022-08-11T03:30:45;21.60;99.90
22337;DHT22;14992;50.844;4.418;2022-08-11T03:33:46;21.60;99.90
22337;DHT22;14992;50.844;4.418;2022-08-11T03:36:54;21.60;99.90
22337;DHT22;14992;50.844;4.418;2022-08-11T03:40:05;21.60;99.90
22337;DHT22;14992;50.844;4.418;2022-08-11T03:42:56;21.60;99.90
22337;DHT22;14992;50.844;4.418;2022-08-11T03:45:54;21.70;99.90
22337;DHT22;14992;50.844;4.418;2022-08-11T03:48:45;21.60;99.90
22337;DHT22;14992;50.844;4.418;2022-08-11T03:51:44;21.60;99.90
22337;DHT22;14992;50.844;4.418;2022-08-11T03:54:34;21.70;99.90
22337;DHT22;14992;50.844;4.418;2022-08-11T03:58:22;21.70;99.90
22337;DHT22;14992;50.844;4.418;2022-08-11T04:08:48;21.70;99.90
22337;DHT22;14992;50.844;4.418;2022-08-11T04:11:56;21.60;99.90
22337;DHT22;14992;50.844;4.418;2022-08-11T04:15:41;21.50;99.90
22337;DHT22;14992;50.844;4.418;2022-08-11T04:22:59;21.30;99.90
22337;DHT22;14992;50.844;4.418;2022-08-11T04:26:29;21.20;99.90
22337;DHT22;14992;50.844;4.418;2022-08-11T04:29:45;21.20;99.90
22337;DHT22;14992;50.844;4.418;2022-08-11T04:39:59;21.50;99.90
22337;DHT22;14992;50.844;4.418;2022-08-11T04:43:23;21.50;99.90
22337;DHT22;14992;50.844;4.418;2022-08-11T04:50:13;21.40;99.90
22337;DHT22;14992;50.844;4.418;2022-08-11T04:53:25;21.40;99.90
22337;DHT22;14992;50.844;4.418;2022-08-11T04:56:33;21.30;99.90
22337;DHT22;14992;50.844;4.418;2022-08-11T05:00:05;21.30;99.90
22337;DHT22;14992;50.844;4.418;2022-08-11T05:03:42;21.30;99.90
22337;DHT22;14992;50.844;4.418;2022-08-11T05:06:38;21.40;99.90
22337;DHT22;14992;50.844;4.418;2022-08-11T05:10:17;21.40;99.90
22337;DHT22;14992;50.844;4.418;2022-08-11T05:13:03;21.50;99.90
22337;DHT22;14992;50.844;4.418;2022-08-11T05:16:09;21.50;99.90
22337;DHT22;14992;50.844;4.418;2022-08-11T05:19:14;21.60;99.90
22337;DHT22;14992;50.844;4.418;2022-08-11T05:22:28;21.50;99.90
22337;DHT22;14992;50.844;4.418;2022-08-11T05:25:31;21.50;99.90
22337;DHT22;14992;50.844;4.418;2022-08-11T05:29:23;21.60;99.90
22337;DHT22;14992;50.844;4.418;2022-08-11T05:32:34;21.50;99.90
22337;DHT22;14992;50.844;4.418;2022-08-11T05:35:40;21.60;99.90
22337;DHT22;14992;50.844;4.418;2022-08-11T05:38:49;21.70;99.90
22337;DHT22;14992;50.844;4.418;2022-08-11T05:41:56;21.60;99.90
22337;DHT22;14992;50.844;4.418;2022-08-11T05:45:12;21.60;99.90
22337;DHT22;14992;50.844;4.418;2022-08-11T05:48:35;21.60;99.90
22337;DHT22;14992;50.844;4.418;2022-08-11T05:51:42;21.70;99.90
22337;DHT22;14992;50.844;4.418;2022-08-11T05:54:50;21.60;99.90
22337;DHT22;14992;50.844;4.418;2022-08-11T05:58:05;21.60;99.90
22337;DHT22;14992;50.844;4.418;2022-08-11T06:01:01;21.70;99.90
22337;DHT22;14992;50.844;4.418;2022-08-11T06:04:04;21.70;99.90
22337;DHT22;14992;50.844;4.418;2022-08-11T06:06:54;21.70;99.90
22337;DHT22;14992;50.844;4.418;2022-08-11T06:09:47;21.70;99.90
22337;DHT22;14992;50.844;4.418;2022-08-11T06:12:31;21.60;99.90
22337;DHT22;14992;50.844;4.418;2022-08-11T06:15:24;21.70;99.90
22337;DHT22;14992;50.844;4.418;2022-08-11T06:18:09;21.80;99.90
22337;DHT22;14992;50.844;4.418;2022-08-11T06:20:58;21.90;99.90
22337;DHT22;14992;50.844;4.418;2022-08-11T06:23:41;22.10;99.90
22337;DHT22;14992;50.844;4.418;2022-08-11T06:26:30;22.20;99.90
22337;DHT22;14992;50.844;4.418;2022-08-11T06:29:33;22.30;99.90
22337;DHT22;14992;50.844;4.418;2022-08-11T06:32:36;22.30;99.90
22337;DHT22;14992;50.844;4.418;2022-08-11T06:35:22;22.30;99.90
22337;DHT22;14992;50.844;4.418;2022-08-11T06:38:35;22.30;99.90
22337;DHT22;14992;50.844;4.418;2022-08-11T06:41:22;22.60;99.90
22337;DHT22;14992;50.844;4.418;2022-08-11T06:44:24;22.80;99.90
22337;DHT22;14992;50.844;4.418;2022-08-11T06:47:10;22.80;99.90
22337;DHT22;14992;50.844;4.418;2022-08-11T06:50:00;22.90;99.90
22337;DHT22;14992;50.844;4.418;2022-08-11T06:52:59;22.80;99.90
22337;DHT22;14992;50.844;4.418;2022-08-11T06:55:49;22.90;99.90
22337;DHT22;14992;50.844;4.418;2022-08-11T06:58:56;23.10;99.90
22337;DHT22;14992;50.844;4.418;2022-08-11T07:02:06;23.20;99.90
22337;DHT22;14992;50.844;4.418;2022-08-11T07:05:00;23.30;99.90
22337;DHT22;14992;50.844;4.418;2022-08-11T07:11:59;23.40;99.90
22337;DHT22;14992;50.844;4.418;2022-08-11T07:15:08;23.50;99.90
22337;DHT22;14992;50.844;4.418;2022-08-11T07:18:41;23.70;99.90
22337;DHT22;14992;50.844;4.418;2022-08-11T07:21:42;23.60;99.90
22337;DHT22;14992;50.844;4.418;2022-08-11T07:25:00;23.90;99.90
22337;DHT22;14992;50.844;4.418;2022-08-11T07:28:01;23.90;99.90
22337;DHT22;14992;50.844;4.418;2022-08-11T07:31:10;24.00;99.60
22337;DHT22;14992;50.844;4.418;2022-08-11T07:34:03;24.40;98.70
22337;DHT22;14992;50.844;4.418;2022-08-11T07:36:54;24.50;97.70
22337;DHT22;14992;50.844;4.418;2022-08-11T07:39:44;24.50;97.50
22337;DHT22;14992;50.844;4.418;2022-08-11T07:42:40;24.50;97.60
22337;DHT22;14992;50.844;4.418;2022-08-11T07:45:22;24.50;97.80
22337;DHT22;14992;50.844;4.418;2022-08-11T07:48:36;24.70;97.20
22337;DHT22;14992;50.844;4.418;2022-08-11T07:51:35;25.00;96.40
22337;DHT22;14992;50.844;4.418;2022-08-11T07:54:49;25.10;95.90
22337;DHT22;14992;50.844;4.418;2022-08-11T07:57:34;24.90;95.80
22337;DHT22;14992;50.844;4.418;2022-08-11T08:00:59;24.90;95.90
22337;DHT22;14992;50.844;4.418;2022-08-11T08:03:59;25.30;94.70
22337;DHT22;14992;50.844;4.418;2022-08-11T08:07:00;25.40;94.00
22337;DHT22;14992;50.844;4.418;2022-08-11T08:10:09;25.60;94.00
22337;DHT22;14992;50.844;4.418;2022-08-11T08:13:22;25.50;93.90
22337;DHT22;14992;50.844;4.418;2022-08-11T08:16:23;25.40;94.20
22337;DHT22;14992;50.844;4.418;2022-08-11T08:19:36;25.50;93.90
22337;DHT22;14992;50.844;4.418;2022-08-11T08:22:19;25.70;93.50
22337;DHT22;14992;50.844;4.418;2022-08-11T08:25:30;25.90;93.00
22337;DHT22;14992;50.844;4.418;2022-08-11T08:28:15;25.90;92.40
22337;DHT22;14992;50.844;4.418;2022-08-11T08:31:11;26.00;92.20
22337;DHT22;14992;50.844;4.418;2022-08-11T08:33:51;26.20;91.70
22337;DHT22;14992;50.844;4.418;2022-08-11T08:36:42;26.20;90.60
22337;DHT22;14992;50.844;4.418;2022-08-11T08:39:25;26.30;89.20
22337;DHT22;14992;50.844;4.418;2022-08-11T08:42:25;26.30;89.70
22337;DHT22;14992;50.844;4.418;2022-08-11T08:45:10;26.30;89.70
22337;DHT22;14992;50.844;4.418;2022-08-11T08:48:10;26.40;87.60
22337;DHT22;14992;50.844;4.418;2022-08-11T08:50:56;26.70;85.20
22337;DHT22;14992;50.844;4.418;2022-08-11T08:54:34;26.80;85.30
22337;DHT22;14992;50.844;4.418;2022-08-11T08:57:16;26.80;85.50
22337;DHT22;14992;50.844;4.418;2022-08-11T09:00:09;26.90;84.30
22337;DHT22;14992;50.844;4.418;2022-08-11T09:03:05;27.00;83.60
22337;DHT22;14992;50.844;4.418;2022-08-11T09:06:08;26.90;83.50
22337;DHT22;14992;50.844;4.418;2022-08-11T09:08:57;26.90;83.10
22337;DHT22;14992;50.844;4.418;2022-08-11T09:11:41;27.20;81.00
22337;DHT22;14992;50.844;4.418;2022-08-11T09:14:38;27.40;79.90
22337;DHT22;14992;50.844;4.418;2022-08-11T09:17:51;27.40;79.80
22337;DHT22;14992;50.844;4.418;2022-08-11T09:20:37;27.70;78.20
22337;DHT22;14992;50.844;4.418;2022-08-11T09:23:33;27.60;78.40
22337;DHT22;14992;50.844;4.418;2022-08-11T09:26:41;27.70;78.50
22337;DHT22;14992;50.844;4.418;2022-08-11T09:29:46;27.80;78.20
22337;DHT22;14992;50.844;4.418;2022-08-11T09:32:28;28.20;77.90
22337;DHT22;14992;50.844;4.418;2022-08-11T09:35:20;28.20;76.70
22337;DHT22;14992;50.844;4.418;2022-08-11T09:38:04;28.10;75.70
22337;DHT22;14992;50.844;4.418;2022-08-11T09:41:12;28.00;74.50
22337;DHT22;14992;50.844;4.418;2022-08-11T09:44:06;28.00;74.50
22337;DHT22;14992;50.844;4.418;2022-08-11T09:47:06;28.00;75.10
22337;DHT22;14992;50.844;4.418;2022-08-11T09:49:57;28.00;74.90
22337;DHT22;14992;50.844;4.418;2022-08-11T09:52:54;28.00;73.90
22337;DHT22;14992;50.844;4.418;2022-08-11T09:55:59;28.20;73.70
22337;DHT22;14992;50.844;4.418;2022-08-11T09:59:10;28.30;73.50
22337;DHT22;14992;50.844;4.418;2022-08-11T10:02:06;28.40;72.50
22337;DHT22;14992;50.844;4.418;2022-08-11T10:04:51;28.30;72.90
22337;DHT22;14992;50.844;4.418;2022-08-11T10:07:57;28.30;73.10
22337;DHT22;14992;50.844;4.418;2022-08-11T10:10:40;28.40;72.90
22337;DHT22;14992;50.844;4.418;2022-08-11T10:13:32;28.50;72.20
22337;DHT22;14992;50.844;4.418;2022-08-11T10:16:55;28.80;70.80
22337;DHT22;14992;50.844;4.418;2022-08-11T10:19:49;28.80;71.20
22337;DHT22;14992;50.844;4.418;2022-08-11T10:22:39;28.90;70.30
22337;DHT22;14992;50.844;4.418;2022-08-11T10:25:47;29.00;69.10
22337;DHT22;14992;50.844;4.418;2022-08-11T10:28:46;28.80;70.40
22337;DHT22;14992;50.844;4.418;2022-08-11T10:31:53;28.80;71.00
22337;DHT22;14992;50.844;4.418;2022-08-11T10:34:58;28.80;71.50
22337;DHT22;14992;50.844;4.418;2022-08-11T10:37:59;28.70;72.20
22337;DHT22;14992;50.844;4.418;2022-08-11T10:40:45;28.80;71.20
22337;DHT22;14992;50.844;4.418;2022-08-11T10:44:04;28.80;71.60
22337;DHT22;14992;50.844;4.418;2022-08-11T10:46:45;29.10;70.40
22337;DHT22;14992;50.844;4.418;2022-08-11T10:49:53;29.30;70.90
22337;DHT22;14992;50.844;4.418;2022-08-11T10:52:56;29.40;70.90
22337;DHT22;14992;50.844;4.418;2022-08-11T10:56:02;29.70;68.10
22337;DHT22;14992;50.844;4.418;2022-08-11T10:59:15;29.70;67.10
22337;DHT22;14992;50.844;4.418;2022-08-11T11:02:12;29.80;66.70
22337;DHT22;14992;50.844;4.418;2022-08-11T11:05:01;30.00;66.50
22337;DHT22;14992;50.844;4.418;2022-08-11T11:08:02;30.00;66.30
22337;DHT22;14992;50.844;4.418;2022-08-11T11:11:03;29.80;65.20
22337;DHT22;14992;50.844;4.418;2022-08-11T11:14:00;29.90;65.70
22337;DHT22;14992;50.844;4.418;2022-08-11T11:17:02;30.00;64.40
22337;DHT22;14992;50.844;4.418;2022-08-11T11:20:21;30.10;63.20
22337;DHT22;14992;50.844;4.418;2022-08-11T11:23:15;30.10;63.40
22337;DHT22;14992;50.844;4.418;2022-08-11T11:26:29;30.00;62.80
22337;DHT22;14992;50.844;4.418;2022-08-11T11:32:48;30.20;60.80
22337;DHT22;14992;50.844;4.418;2022-08-11T11:35:51;30.20;60.40
22337;DHT22;14992;50.844;4.418;2022-08-11T11:38:51;30.40;61.30
22337;DHT22;14992;50.844;4.418;2022-08-11T11:41:34;30.40;60.50
22337;DHT22;14992;50.844;4.418;2022-08-11T11:44:31;30.30;60.30
22337;DHT22;14992;50.844;4.418;2022-08-11T11:47:13;30.30;60.00
22337;DHT22;14992;50.844;4.418;2022-08-11T11:50:06;30.50;59.10
22337;DHT22;14992;50.844;4.418;2022-08-11T11:52:49;30.70;58.50
22337;DHT22;14992;50.844;4.418;2022-08-11T11:55:39;30.70;59.10
22337;DHT22;14992;50.844;4.418;2022-08-11T11:58:37;30.50;58.90
22337;DHT22;14992;50.844;4.418;2022-08-11T12:01:47;30.10;59.40
22337;DHT22;14992;50.844;4.418;2022-08-11T12:04:36;30.50;59.10
22337;DHT22;14992;50.844;4.418;2022-08-11T12:07:35;30.50;60.10
22337;DHT22;14992;50.844;4.418;2022-08-11T12:10:47;30.70;58.50
22337;DHT22;14992;50.844;4.418;2022-08-11T12:14:05;30.70;58.70
22337;DHT22;14992;50.844;4.418;2022-08-11T12:16:47;30.70;59.70
22337;DHT22;14992;50.844;4.418;2022-08-11T12:19:42;30.90;57.80
22337;DHT22;14992;50.844;4.418;2022-08-11T12:22:25;30.90;57.60
22337;DHT22;14992;50.844;4.418;2022-08-11T12:25:44;31.10;56.80
22337;DHT22;14992;50.844;4.418;2022-08-11T12:29:00;31.10;56.40
22337;DHT22;14992;50.844;4.418;2022-08-11T12:31:49;31.10;56.40
22337;DHT22;14992;50.844;4.418;2022-08-11T12:34:31;31.00;56.40
22337;DHT22;14992;50.844;4.418;2022-08-11T12:37:29;30.80;56.70
22337;DHT22;14992;50.844;4.418;2022-08-11T12:40:13;30.90;56.40
22337;DHT22;14992;50.844;4.418;2022-08-11T12:43:48;30.80;56.60
22337;DHT22;14992;50.844;4.418;2022-08-11T12:46:47;30.90;56.80
22337;DHT22;14992;50.844;4.418;2022-08-11T12:49:45;30.90;56.30
22337;DHT22;14992;50.844;4.418;2022-08-11T12:52:56;31.00;56.20
22337;DHT22;14992;50.844;4.418;2022-08-11T12:55:45;31.00;54.60
22337;DHT22;14992;50.844;4.418;2022-08-11T12:58:52;31.10;54.70
22337;DHT22;14992;50.844;4.418;2022-08-11T13:01:57;31.30;53.90
22337;DHT22;14992;50.844;4.418;2022-08-11T13:05:11;31.20;54.30
22337;DHT22;14992;50.844;4.418;2022-08-11T13:08:08;31.20;53.90
22337;DHT22;14992;50.844;4.418;2022-08-11T13:10:44;31.30;53.70
22337;DHT22;14992;50.844;4.418;2022-08-11T13:14:00;31.10;55.50
22337;DHT22;14992;50.844;4.418;2022-08-11T13:16:47;31.30;54.20
22337;DHT22;14992;50.844;4.418;2022-08-11T13:20:21;31.50;54.00
22337;DHT22;14992;50.844;4.418;2022-08-11T13:23:05;31.40;53.90
22337;DHT22;14992;50.844;4.418;2022-08-11T13:25:54;31.30;54.20
22337;DHT22;14992;50.844;4.418;2022-08-11T13:28:36;31.40;54.80
22337;DHT22;14992;50.844;4.418;2022-08-11T13:31:27;31.30;55.00
22337;DHT22;14992;50.844;4.418;2022-08-11T13:34:10;31.50;54.50
22337;DHT22;14992;50.844;4.418;2022-08-11T13:36:56;31.60;53.70
22337;DHT22;14992;50.844;4.418;2022-08-11T13:39:45;31.40;54.50
22337;DHT22;14992;50.844;4.418;2022-08-11T13:42:40;31.40;54.50
22337;DHT22;14992;50.844;4.418;2022-08-11T13:45:24;31.60;53.60
22337;DHT22;14992;50.844;4.418;2022-08-11T13:48:21;31.70;53.50
22337;DHT22;14992;50.844;4.418;2022-08-11T13:51:03;31.60;54.80
22337;DHT22;14992;50.844;4.418;2022-08-11T13:54:21;31.40;54.90
22337;DHT22;14992;50.844;4.418;2022-08-11T13:57:06;31.70;53.80
22337;DHT22;14992;50.844;4.418;2022-08-11T14:00:15;31.60;54.60
22337;DHT22;14992;50.844;4.418;2022-08-11T14:03:12;31.70;55.20
22337;DHT22;14992;50.844;4.418;2022-08-11T14:05:57;31.80;55.00
22337;DHT22;14992;50.844;4.418;2022-08-11T14:08:51;31.90;53.50
22337;DHT22;14992;50.844;4.418;2022-08-11T14:11:33;31.90;53.60
22337;DHT22;14992;50.844;4.418;2022-08-11T14:15:05;31.90;53.40
22337;DHT22;14992;50.844;4.418;2022-08-11T14:18:08;32.00;53.30
22337;DHT22;14992;50.844;4.418;2022-08-11T14:20:53;31.90;53.50
22337;DHT22;14992;50.844;4.418;2022-08-11T14:24:00;31.90;53.10
22337;DHT22;14992;50.844;4.418;2022-08-11T14:26:46;31.80;53.50
22337;DHT22;14992;50.844;4.418;2022-08-11T14:29:36;31.80;53.50
22337;DHT22;14992;50.844;4.418;2022-08-11T14:32:32;31.60;53.10
22337;DHT22;14992;50.844;4.418;2022-08-11T14:35:26;31.70;52.90
22337;DHT22;14992;50.844;4.418;2022-08-11T14:38:24;31.60;52.90
22337;DHT22;14992;50.844;4.418;2022-08-11T14:41:08;31.90;52.50
22337;DHT22;14992;50.844;4.418;2022-08-11T14:44:44;32.10;52.30
22337;DHT22;14992;50.844;4.418;2022-08-11T14:47:44;32.30;51.80
22337;DHT22;14992;50.844;4.418;2022-08-11T14:50:34;32.30;52.00
22337;DHT22;14992;50.844;4.418;2022-08-11T14:53:16;32.30;51.60
22337;DHT22;14992;50.844;4.418;2022-08-11T14:56:06;32.30;51.80
22337;DHT22;14992;50.844;4.418;2022-08-11T14:59:12;32.40;51.80
22337;DHT22;14992;50.844;4.418;2022-08-11T15:02:08;32.40;52.50
22337;DHT22;14992;50.844;4.418;2022-08-11T15:05:08;32.70;51.80
22337;DHT22;14992;50.844;4.418;2022-08-11T15:08:04;32.80;52.00
22337;DHT22;14992;50.844;4.418;2022-08-11T15:10:47;32.80;51.50
22337;DHT22;14992;50.844;4.418;2022-08-11T15:13:44;32.90;51.20
22337;DHT22;14992;50.844;4.418;2022-08-11T15:16:26;33.00;51.40
22337;DHT22;14992;50.844;4.418;2022-08-11T15:19:42;33.00;51.10
22337;DHT22;14992;50.844;4.418;2022-08-11T15:22:41;32.80;50.90
22337;DHT22;14992;50.844;4.418;2022-08-11T15:25:54;32.80;51.20
22337;DHT22;14992;50.844;4.418;2022-08-11T15:28:39;32.80;51.00
22337;DHT22;14992;50.844;4.418;2022-08-11T15:31:57;32.90;51.10
22337;DHT22;14992;50.844;4.418;2022-08-11T15:35:04;32.90;50.60
22337;DHT22;14992;50.844;4.418;2022-08-11T15:38:19;32.80;50.50
22337;DHT22;14992;50.844;4.418;2022-08-11T15:41:14;32.60;50.80
22337;DHT22;14992;50.844;4.418;2022-08-11T15:44:40;32.40;51.50
22337;DHT22;14992;50.844;4.418;2022-08-11T15:47:45;32.50;51.40
22337;DHT22;14992;50.844;4.418;2022-08-11T15:50:47;32.60;51.10
22337;DHT22;14992;50.844;4.418;2022-08-11T15:53:32;32.60;51.70
22337;DHT22;14992;50.844;4.418;2022-08-11T15:56:23;32.70;51.80
22337;DHT22;14992;50.844;4.418;2022-08-11T15:59:14;32.80;50.50
22337;DHT22;14992;50.844;4.418;2022-08-11T16:02:27;32.60;50.00
22337;DHT22;14992;50.844;4.418;2022-08-11T16:05:25;32.70;49.60
22337;DHT22;14992;50.844;4.418;2022-08-11T16:08:31;32.80;49.10
22337;DHT22;14992;50.844;4.418;2022-08-11T16:11:14;32.90;48.50
22337;DHT22;14992;50.844;4.418;2022-08-11T16:14:11;32.90;48.00
22337;DHT22;14992;50.844;4.418;2022-08-11T16:17:18;32.80;48.40
22337;DHT22;14992;50.844;4.418;2022-08-11T16:20:03;32.80;47.70
22337;DHT22;14992;50.844;4.418;2022-08-11T16:22:56;32.80;47.50
22337;DHT22;14992;50.844;4.418;2022-08-11T16:25:40;32.80;47.50
22337;DHT22;14992;50.844;4.418;2022-08-11T16:28:51;32.50;47.50
22337;DHT22;14992;50.844;4.418;2022-08-11T16:31:34;32.50;47.80
22337;DHT22;14992;50.844;4.418;2022-08-11T16:34:46;32.60;48.10
22337;DHT22;14992;50.844;4.418;2022-08-11T16:38:03;32.60;47.60
22337;DHT22;14992;50.844;4.418;2022-08-11T16:41:05;32.70;46.70
22337;DHT22;14992;50.844;4.418;2022-08-11T16:44:02;32.80;46.60
22337;DHT22;14992;50.844;4.418;2022-08-11T16:47:13;32.70;46.70
22337;DHT22;14992;50.844;4.418;2022-08-11T16:50:29;32.50;46.80
22337;DHT22;14992;50.844;4.418;2022-08-11T16:53:12;32.60;46.70
22337;DHT22;14992;50.844;4.418;2022-08-11T16:56:26;32.50;46.90
22337;DHT22;14992;50.844;4.418;2022-08-11T16:59:18;32.90;46.30
22337;DHT22;14992;50.844;4.418;2022-08-11T17:02:16;33.00;45.80
22337;DHT22;14992;50.844;4.418;2022-08-11T17:05:16;32.80;46.40
22337;DHT22;14992;50.844;4.418;2022-08-11T17:08:38;32.80;46.50
22337;DHT22;14992;50.844;4.418;2022-08-11T17:11:41;33.00;46.30
22337;DHT22;14992;50.844;4.418;2022-08-11T17:14:59;33.20;45.80
22337;DHT22;14992;50.844;4.418;2022-08-11T17:18:05;33.90;45.00
22337;DHT22;14992;50.844;4.418;2022-08-11T17:20:54;34.50;44.10
22337;DHT22;14992;50.844;4.418;2022-08-11T17:23:40;34.60;43.80
22337;DHT22;14992;50.844;4.418;2022-08-11T17:26:38;34.70;43.80
22337;DHT22;14992;50.844;4.418;2022-08-11T17:29:33;34.20;44.00
22337;DHT22;14992;50.844;4.418;2022-08-11T17:32:36;34.10;44.40
22337;DHT22;14992;50.844;4.418;2022-08-11T17:35:38;33.70;44.80
22337;DHT22;14992;50.844;4.418;2022-08-11T17:38:35;33.10;45.60
22337;DHT22;14992;50.844;4.418;2022-08-11T17:41:18;32.90;46.00
22337;DHT22;14992;50.844;4.418;2022-08-11T17:44:32;32.80;46.40
22337;DHT22;14992;50.844;4.418;2022-08-11T17:47:32;32.60;46.80
22337;DHT22;14992;50.844;4.418;2022-08-11T17:50:38;32.40;47.20
22337;DHT22;14992;50.844;4.418;2022-08-11T17:53:23;32.40;47.50
22337;DHT22;14992;50.844;4.418;2022-08-11T17:56:45;32.20;47.70
22337;DHT22;14992;50.844;4.418;2022-08-11T18:00:02;31.90;48.00
22337;DHT22;14992;50.844;4.418;2022-08-11T18:02:58;31.60;48.90
22337;DHT22;14992;50.844;4.418;2022-08-11T18:06:01;31.50;49.10
22337;DHT22;14992;50.844;4.418;2022-08-11T18:08:56;31.60;49.20
22337;DHT22;14992;50.844;4.418;2022-08-11T18:11:59;31.50;49.30
22337;DHT22;14992;50.844;4.418;2022-08-11T18:15:13;31.50;49.70
22337;DHT22;14992;50.844;4.418;2022-08-11T18:18:22;31.30;50.20
22337;DHT22;14992;50.844;4.418;2022-08-11T18:21:29;31.20;50.40
22337;DHT22;14992;50.844;4.418;2022-08-11T18:24:49;31.20;50.50
22337;DHT22;14992;50.844;4.418;2022-08-11T18:28:06;31.10;50.40
22337;DHT22;14992;50.844;4.418;2022-08-11T18:31:10;31.00;50.90
22337;DHT22;14992;50.844;4.418;2022-08-11T18:34:27;30.90;51.20
22337;DHT22;14992;50.844;4.418;2022-08-11T18:37:32;30.80;51.50
22337;DHT22;14992;50.844;4.418;2022-08-11T18:40:39;30.70;51.70
22337;DHT22;14992;50.844;4.418;2022-08-11T18:43:44;30.60;51.90
22337;DHT22;14992;50.844;4.418;2022-08-11T18:46:52;30.60;52.10
22337;DHT22;14992;50.844;4.418;2022-08-11T18:49:57;30.50;52.40
22337;DHT22;14992;50.844;4.418;2022-08-11T18:53:20;30.40;52.50
22337;DHT22;14992;50.844;4.418;2022-08-11T18:56:20;30.30;52.70
22337;DHT22;14992;50.844;4.418;2022-08-11T18:59:37;30.20;53.10
22337;DHT22;14992;50.844;4.418;2022-08-11T19:02:51;30.00;53.40
22337;DHT22;14992;50.844;4.418;2022-08-11T19:05:52;29.90;53.70
22337;DHT22;14992;50.844;4.418;2022-08-11T19:09:19;29.80;54.00
22337;DHT22;14992;50.844;4.418;2022-08-11T19:12:36;29.70;54.30
22337;DHT22;14992;50.844;4.418;2022-08-11T19:15:38;29.70;54.50
22337;DHT22;14992;50.844;4.418;2022-08-11T19:18:52;29.60;54.90
22337;DHT22;14992;50.844;4.418;2022-08-11T19:21:52;29.50;55.10
22337;DHT22;14992;50.844;4.418;2022-08-11T19:25:05;29.40;55.40
22337;DHT22;14992;50.844;4.418;2022-08-11T19:28:06;29.30;55.80
22337;DHT22;14992;50.844;4.418;2022-08-11T19:31:14;29.10;56.20
22337;DHT22;14992;50.844;4.418;2022-08-11T19:34:20;29.00;56.40
22337;DHT22;14992;50.844;4.418;2022-08-11T19:37:33;29.00;56.70
22337;DHT22;14992;50.844;4.418;2022-08-11T19:40:37;29.00;56.80
22337;DHT22;14992;50.844;4.418;2022-08-11T19:43:49;28.90;57.00
22337;DHT22;14992;50.844;4.418;2022-08-11T19:46:51;28.90;57.10
22337;DHT22;14992;50.844;4.418;2022-08-11T19:50:04;28.90;57.40
22337;DHT22;14992;50.844;4.418;2022-08-11T19:53:05;28.90;57.40
22337;DHT22;14992;50.844;4.418;2022-08-11T19:56:12;28.70;57.60
22337;DHT22;14992;50.844;4.418;2022-08-11T19:59:17;28.60;57.90
22337;DHT22;14992;50.844;4.418;2022-08-11T20:02:32;28.60;58.20
22337;DHT22;14992;50.844;4.418;2022-08-11T20:05:49;28.40;58.50
22337;DHT22;14992;50.844;4.418;2022-08-11T20:08:49;28.40;58.80